createdAt,value
2019-05-12T00:01:12.654Z,99.90
2019-05-12T00:03:41.921Z,99.90
2019-05-12T00:06:10.663Z,99.90
2019-05-12T00:08:39.421Z,99.90
2019-05-12T00:11:08.932Z,99.90
2019-05-12T00:13:38.493Z,99.90
2019-05-12T00:16:08.770Z,99.90
2019-05-12T00:18:37.904Z,99.90
2019-05-12T00:21:08.781Z,99.90
2019-05-12T00:23:58.252Z,99.90
2019-05-12T00:26:28.261Z,99.90
2019-05-12T00:28:58.823Z,99.90
2019-05-12T00:31:28.141Z,99.90
2019-05-12T00:33:58.697Z,99.90
2019-05-12T00:36:29.272Z,99.90
2019-05-12T00:38:58.221Z,99.90
2019-05-12T00:41:28.407Z,99.90
2019-05-12T00:43:58.268Z,99.90
2019-05-12T00:46:27.818Z,99.90
2019-05-12T00:48:58.517Z,99.90
2019-05-12T00:51:28.817Z,99.90
2019-05-12T00:53:58.147Z,99.90
2019-05-12T00:56:28.472Z,99.90
2019-05-12T00:58:58.027Z,99.90
2019-05-12T01:01:28.609Z,99.90
2019-05-12T01:03:57.979Z,99.90
2019-05-12T01:06:28.204Z,99.90
2019-05-12T01:08:57.906Z,99.90
2019-05-12T01:11:28.542Z,99.90
2019-05-12T01:13:58.323Z,99.90
2019-05-12T01:16:28.918Z,99.90
2019-05-12T01:18:58.623Z,99.90
2019-05-12T01:21:28.717Z,99.90
2019-05-12T01:24:03.364Z,99.90
2019-05-12T01:26:28.541Z,99.90
2019-05-12T01:28:58.082Z,99.90
2019-05-12T01:31:29.353Z,99.90
2019-05-12T01:33:58.628Z,99.90
2019-05-12T01:36:28.627Z,99.90
2019-05-12T01:39:01.599Z,99.90
2019-05-12T01:41:28.813Z,99.90
2019-05-12T01:43:58.422Z,99.90
2019-05-12T01:46:48.376Z,99.90
2019-05-12T01:49:18.639Z,99.90
2019-05-12T01:51:47.944Z,99.90
2019-05-12T01:54:18.703Z,99.90
2019-05-12T01:56:48.366Z,99.90
2019-05-12T01:59:18.540Z,99.90
2019-05-12T02:01:48.767Z,99.90
2019-05-12T02:04:18.214Z,99.90
2019-05-12T02:06:48.575Z,99.90
2019-05-12T02:09:19.108Z,99.90
2019-05-12T02:11:48.343Z,99.90
2019-05-12T02:14:18.253Z,99.90
2019-05-12T02:16:47.737Z,99.90
2019-05-12T02:19:17.883Z,99.90
2019-05-12T02:21:48.744Z,99.90
2019-05-12T02:24:26.766Z,99.90
2019-05-12T02:26:48.663Z,99.90
2019-05-12T02:29:18.374Z,99.90
2019-05-12T02:31:50.076Z,99.90
2019-05-12T02:34:17.885Z,99.90
2019-05-12T02:36:46.681Z,99.90
2019-05-12T02:39:15.489Z,99.90
2019-05-12T02:41:44.977Z,99.90
2019-05-12T02:44:15.147Z,99.90
2019-05-12T02:46:44.735Z,99.90
2019-05-12T02:49:15.672Z,99.90
2019-05-12T02:51:45.579Z,99.90
2019-05-12T02:54:15.214Z,99.90
2019-05-12T02:56:46.283Z,99.90
2019-05-12T02:59:16.731Z,99.90
2019-05-12T03:01:48.197Z,99.90
2019-05-12T03:04:18.988Z,99.90
2019-05-12T03:06:48.589Z,99.90
2019-05-12T03:09:17.502Z,99.90
2019-05-12T03:11:46.380Z,99.90
2019-05-12T03:14:15.894Z,99.90
2019-05-12T03:16:45.538Z,99.90
2019-05-12T03:19:15.137Z,99.90
2019-05-12T03:21:44.348Z,99.90
2019-05-12T03:24:14.671Z,99.90
2019-05-12T03:26:44.969Z,99.90
2019-05-12T03:29:14.984Z,99.90
2019-05-12T03:31:48.872Z,99.90
2019-05-12T03:34:19.448Z,99.90
2019-05-12T03:36:50.636Z,99.90
2019-05-12T03:39:16.000Z,99.90
2019-05-12T03:41:45.065Z,99.90
2019-05-12T03:44:15.044Z,99.90
2019-05-12T03:46:45.525Z,99.90
2019-05-12T03:49:15.535Z,99.90
2019-05-12T03:51:45.697Z,99.90
2019-05-12T03:54:15.448Z,99.90
2019-05-12T03:56:45.137Z,99.90
2019-05-12T03:59:15.058Z,99.90
2019-05-12T04:01:45.298Z,99.90
2019-05-12T04:04:15.294Z,99.90
2019-05-12T04:06:45.304Z,99.90
2019-05-12T04:09:15.457Z,99.90
2019-05-12T04:11:44.684Z,99.90
2019-05-12T04:14:14.815Z,99.90
2019-05-12T04:16:45.139Z,99.90
2019-05-12T04:19:14.827Z,99.90
2019-05-12T04:21:44.798Z,99.90
2019-05-12T04:24:14.446Z,99.90
2019-05-12T04:26:44.973Z,99.90
2019-05-12T04:29:15.446Z,99.90
2019-05-12T04:31:44.861Z,99.90
2019-05-12T04:34:18.708Z,99.90
2019-05-12T04:36:45.309Z,99.90
2019-05-12T04:39:14.887Z,99.90
2019-05-12T04:41:44.747Z,99.90
2019-05-12T04:44:15.286Z,99.90
2019-05-12T04:46:45.203Z,99.90
2019-05-12T04:49:15.797Z,99.90
2019-05-12T04:51:45.180Z,99.90
2019-05-12T04:54:15.179Z,99.90
2019-05-12T04:56:44.744Z,99.90
2019-05-12T04:59:15.789Z,99.90
2019-05-12T05:01:45.377Z,99.90
2019-05-12T05:04:15.646Z,99.90
2019-05-12T05:06:45.052Z,99.90
2019-05-12T05:09:14.607Z,99.90
2019-05-12T05:11:45.174Z,99.90
2019-05-12T05:14:14.613Z,99.90
2019-05-12T05:16:45.117Z,99.90
2019-05-12T05:19:14.017Z,99.90
2019-05-12T05:21:43.734Z,99.90
2019-05-12T05:24:14.251Z,99.90
2019-05-12T05:26:43.711Z,99.90
2019-05-12T05:29:13.564Z,99.90
2019-05-12T05:31:44.239Z,99.90
2019-05-12T05:34:14.857Z,99.90
2019-05-12T05:36:44.203Z,99.90
2019-05-12T05:39:13.903Z,99.90
2019-05-12T05:41:46.547Z,99.90
2019-05-12T05:44:14.051Z,99.90
2019-05-12T05:46:48.226Z,99.90
2019-05-12T05:49:13.645Z,99.90
2019-05-12T05:51:46.211Z,99.90
2019-05-12T05:54:13.810Z,99.90
2019-05-12T05:56:57.522Z,99.90
2019-05-12T05:59:15.172Z,99.90
2019-05-12T06:01:46.965Z,99.90
2019-05-12T06:04:15.734Z,99.90
2019-05-12T06:06:50.807Z,99.90
2019-05-12T06:09:43.163Z,99.90
2019-05-12T06:12:13.409Z,99.90
2019-05-12T06:14:48.759Z,99.90
2019-05-12T06:17:14.583Z,99.90
2019-05-12T06:19:43.865Z,99.90
2019-05-12T06:22:17.376Z,99.90
2019-05-12T06:24:49.132Z,99.90
2019-05-12T06:27:20.851Z,99.90
2019-05-12T06:29:45.935Z,99.90
2019-05-12T06:32:14.708Z,99.90
2019-05-12T06:34:43.624Z,99.90
2019-05-12T06:37:16.922Z,99.90
2019-05-12T06:39:43.855Z,99.90
2019-05-12T06:42:16.804Z,99.90
2019-05-12T06:44:43.838Z,99.90
2019-05-12T06:47:14.317Z,99.90
2019-05-12T06:49:43.972Z,99.90
2019-05-12T06:52:14.363Z,99.90
2019-05-12T06:54:51.180Z,99.90
2019-05-12T06:57:22.264Z,99.90
2019-05-12T06:59:50.992Z,99.90
2019-05-12T07:02:15.715Z,99.90
2019-05-12T07:04:47.488Z,99.90
2019-05-12T07:07:15.393Z,99.90
2019-05-12T07:09:54.290Z,99.90
2019-05-12T07:12:15.111Z,99.90
2019-05-12T07:14:44.299Z,99.90
2019-05-12T07:17:28.709Z,99.90
2019-05-12T07:19:58.409Z,99.90
2019-05-12T07:22:31.854Z,99.90
2019-05-12T07:24:57.804Z,96.80
2019-05-12T07:27:36.604Z,89.40
2019-05-12T07:29:57.634Z,89.90
2019-05-12T07:32:26.575Z,86.90
2019-05-12T07:34:55.375Z,83.70
2019-05-12T07:37:25.734Z,82.70
2019-05-12T07:39:55.488Z,83.10
2019-05-12T07:42:31.484Z,73.90
2019-05-12T07:44:58.920Z,71.20
2019-05-12T07:47:29.412Z,72.60
2019-05-12T07:49:59.997Z,68.50
2019-05-12T07:52:29.273Z,64.80
2019-05-12T07:54:58.381Z,68.50
2019-05-12T07:57:27.905Z,71.50
2019-05-12T07:59:57.134Z,64.20
2019-05-12T08:02:31.548Z,64.90
2019-05-12T08:04:57.145Z,68.90
2019-05-12T08:07:29.816Z,65.90
2019-05-12T08:09:57.133Z,57.10
2019-05-12T08:12:29.255Z,58.50
2019-05-12T08:14:59.282Z,52.80
2019-05-12T08:17:37.378Z,45.00
2019-05-12T08:28:36.071Z,50.20
2019-05-12T08:31:56.533Z,55.60
2019-05-12T08:36:16.740Z,56.80
2019-05-12T08:41:36.353Z,59.30
2019-05-12T09:05:53.733Z,63.10
2019-05-12T09:09:28.456Z,64.50
2019-05-12T09:24:40.395Z,38.10
2019-05-12T09:27:10.765Z,39.70
2019-05-12T09:27:17.180Z,46.40
2019-05-12T09:29:39.562Z,43.00
2019-05-12T09:32:09.715Z,29.40
2019-05-12T09:34:38.945Z,37.40
2019-05-12T09:37:07.888Z,33.90
2019-05-12T09:39:42.589Z,30.50
2019-05-12T09:42:09.220Z,29.80
2019-05-12T09:44:41.156Z,32.20
2019-05-12T09:47:19.495Z,26.80
2019-05-12T09:49:39.806Z,16.10
2019-05-12T09:52:16.285Z,16.80
2019-05-12T09:54:40.751Z,18.30
2019-05-12T09:57:10.093Z,17.00
2019-05-12T09:59:39.047Z,18.90
2019-05-12T10:02:10.468Z,14.90
2019-05-12T10:04:38.672Z,19.40
2019-05-12T10:07:07.752Z,14.90
2019-05-12T10:09:36.587Z,13.30
2019-05-12T10:12:05.774Z,17.50
2019-05-12T10:14:35.167Z,20.10
2019-05-12T10:17:04.349Z,26.80
2019-05-12T10:19:34.006Z,14.50
2019-05-12T10:22:03.243Z,9.80
2019-05-12T10:24:40.562Z,11.90
2019-05-12T10:27:04.673Z,5.80
2019-05-12T10:29:33.800Z,8.10
2019-05-12T10:32:03.964Z,6.40
2019-05-12T10:34:35.982Z,4.60
2019-05-12T10:37:04.201Z,3.50
2019-05-12T10:39:33.535Z,3.80
2019-05-12T10:42:04.067Z,1.00
2019-05-12T10:44:40.406Z,3.10
2019-05-12T10:47:08.157Z,4.50
2019-05-12T10:49:36.954Z,4.30
2019-05-12T10:52:05.856Z,3.30
2019-05-12T10:54:34.883Z,1.40
2019-05-12T10:57:04.952Z,1.00
2019-05-12T10:59:38.868Z,1.00
2019-05-12T11:02:05.117Z,1.30
2019-05-12T11:04:39.412Z,4.30
2019-05-12T11:07:05.271Z,5.80
2019-05-12T11:09:34.653Z,1.80
2019-05-12T11:12:03.649Z,3.90
2019-05-12T11:14:34.158Z,1.00
2019-05-12T11:17:07.564Z,1.00
2019-05-12T11:19:40.767Z,2.60
2019-05-12T11:22:06.465Z,3.10
2019-05-12T11:24:35.221Z,4.60
2019-05-12T11:27:04.264Z,1.00
2019-05-12T11:29:45.798Z,1.00
2019-05-12T11:32:03.776Z,2.90
2019-05-12T11:34:33.594Z,2.70
2019-05-12T11:37:03.401Z,4.50
2019-05-12T11:39:37.171Z,4.00
2019-05-12T11:42:04.186Z,5.20
2019-05-12T11:44:33.669Z,5.40
2019-05-12T11:47:03.652Z,4.30
2019-05-12T11:49:33.619Z,4.90
2019-05-12T11:52:07.624Z,6.00
2019-05-12T11:54:33.564Z,7.60
2019-05-12T11:57:02.421Z,2.70
2019-05-12T11:59:34.022Z,3.60
2019-05-12T12:02:02.463Z,4.00
2019-05-12T12:04:46.404Z,3.40
2019-05-12T12:07:16.195Z,1.90
2019-05-12T12:09:49.550Z,4.40
2019-05-12T12:12:15.617Z,5.90
2019-05-12T12:14:46.180Z,5.60
2019-05-12T12:17:15.355Z,4.70
2019-05-12T12:19:46.872Z,8.20
2019-05-12T12:22:14.757Z,8.00
2019-05-12T12:24:43.776Z,5.40
2019-05-12T12:27:14.232Z,7.70
2019-05-12T12:29:43.965Z,4.70
2019-05-12T12:32:16.897Z,4.90
2019-05-12T12:34:44.053Z,7.70
2019-05-12T12:37:13.710Z,5.90
2019-05-12T12:39:43.430Z,7.00
2019-05-12T12:42:13.979Z,3.80
2019-05-12T12:44:42.876Z,2.70
2019-05-12T12:47:13.542Z,6.40
2019-05-12T12:49:45.266Z,5.20
2019-05-12T12:52:13.861Z,4.80
2019-05-12T12:54:43.859Z,6.30
2019-05-12T12:57:13.660Z,3.50
2019-05-12T12:59:50.993Z,4.10
2019-05-12T13:02:14.247Z,5.00
2019-05-12T13:04:45.933Z,3.50
2019-05-12T13:07:15.619Z,1.00
2019-05-12T13:09:44.469Z,2.30
2019-05-12T13:12:19.451Z,2.90
2019-05-12T13:14:47.445Z,4.90
2019-05-12T13:17:29.044Z,3.00
2019-05-12T13:19:54.735Z,4.80
2019-05-12T13:22:24.512Z,3.40
2019-05-12T13:24:58.344Z,3.30
2019-05-12T13:27:28.952Z,2.50
2019-05-12T13:29:55.346Z,1.50
2019-05-12T13:32:32.143Z,1.00
2019-05-12T13:34:55.158Z,2.30
2019-05-12T13:37:23.968Z,1.30
2019-05-12T13:39:56.828Z,1.00
2019-05-12T13:42:24.156Z,1.00
2019-05-12T13:44:53.398Z,1.00
2019-05-12T13:47:22.269Z,1.00
2019-05-12T13:49:51.102Z,1.00
2019-05-12T13:52:20.350Z,1.00
2019-05-12T13:54:50.328Z,1.00
2019-05-12T13:57:19.445Z,1.00
2019-05-12T13:59:53.693Z,1.00
2019-05-12T14:02:23.459Z,1.00
2019-05-12T14:04:53.569Z,1.00
2019-05-12T14:07:23.665Z,1.00
2019-05-12T14:09:52.604Z,1.00
2019-05-12T14:12:21.811Z,1.00
2019-05-12T14:14:50.856Z,1.00
2019-05-12T14:17:19.654Z,1.00
2019-05-12T14:19:48.419Z,1.00
2019-05-12T14:22:21.234Z,1.00
2019-05-12T14:24:47.959Z,1.00
2019-05-12T14:27:19.077Z,1.00
2019-05-12T14:29:47.443Z,1.00
2019-05-12T14:32:17.358Z,1.00
2019-05-12T14:34:50.993Z,1.00
2019-05-12T14:37:17.719Z,1.00
2019-05-12T14:39:50.246Z,1.00
2019-05-12T14:42:17.270Z,1.00
2019-05-12T14:44:49.609Z,1.00
2019-05-12T14:47:19.226Z,1.00
2019-05-12T14:49:47.480Z,1.00
2019-05-12T14:52:16.541Z,1.00
2019-05-12T14:54:45.334Z,1.00
2019-05-12T14:57:14.141Z,1.00
2019-05-12T14:59:42.904Z,1.00
2019-05-12T15:02:13.592Z,1.00
2019-05-12T15:04:43.571Z,1.00
2019-05-12T15:07:12.472Z,1.00
2019-05-12T15:09:41.458Z,1.00
2019-05-12T15:12:10.478Z,1.00
2019-05-12T15:14:39.473Z,1.00
2019-05-12T15:17:13.853Z,1.00
2019-05-12T15:19:38.831Z,1.00
2019-05-12T15:22:11.629Z,1.00
2019-05-12T15:24:38.375Z,1.00
2019-05-12T15:27:07.155Z,1.00
2019-05-12T15:29:35.997Z,1.00
2019-05-12T15:32:04.902Z,1.00
2019-05-12T15:34:34.193Z,1.00
2019-05-12T15:37:04.174Z,1.00
2019-05-12T15:39:33.644Z,1.00
2019-05-12T15:42:03.474Z,1.00
2019-05-12T15:44:36.689Z,1.00
2019-05-12T15:47:03.907Z,1.00
2019-05-12T15:49:33.709Z,1.00
2019-05-12T15:52:03.498Z,1.00
2019-05-12T15:54:33.983Z,1.00
2019-05-12T15:57:04.218Z,1.00
2019-05-12T15:59:34.468Z,1.00
2019-05-12T16:02:12.262Z,1.00
2019-05-12T16:04:42.270Z,1.00
2019-05-12T16:07:04.475Z,1.00
2019-05-12T16:09:34.459Z,1.00
2019-05-12T16:12:09.965Z,1.00
2019-05-12T16:14:36.869Z,1.00
2019-05-12T16:17:06.557Z,1.00
2019-05-12T16:19:35.855Z,1.00
2019-05-12T16:22:04.693Z,1.00
2019-05-12T16:24:34.154Z,1.00
2019-05-12T16:27:03.584Z,1.00
2019-05-12T16:29:34.010Z,1.00
2019-05-12T16:32:04.539Z,1.00
2019-05-12T16:34:36.067Z,1.00
2019-05-12T16:37:04.318Z,1.00
2019-05-12T16:39:37.029Z,1.00
2019-05-12T16:42:08.222Z,1.00
2019-05-12T16:44:34.872Z,1.00
2019-05-12T16:47:04.268Z,1.00
2019-05-12T16:49:34.660Z,1.00
2019-05-12T16:52:03.887Z,1.00
2019-05-12T16:54:33.537Z,1.00
2019-05-12T16:57:08.464Z,1.00
2019-05-12T16:59:33.000Z,1.00
2019-05-12T17:02:07.655Z,1.00
2019-05-12T17:04:33.359Z,1.00
2019-05-12T17:07:02.284Z,1.00
2019-05-12T17:09:33.119Z,1.00
2019-05-12T17:12:01.783Z,1.00
2019-05-12T17:14:38.679Z,1.00
2019-05-12T17:17:03.620Z,1.20
2019-05-12T17:19:33.944Z,1.70
2019-05-12T17:22:04.084Z,1.00
2019-05-12T17:24:34.417Z,1.70
2019-05-12T17:27:09.018Z,3.10
2019-05-12T17:29:34.157Z,4.40
2019-05-12T17:32:04.126Z,1.80
2019-05-12T17:34:34.092Z,2.00
2019-05-12T17:37:03.937Z,2.30
2019-05-12T17:39:35.726Z,2.50
2019-05-12T17:42:03.969Z,2.10
2019-05-12T17:44:36.762Z,2.40
2019-05-12T17:47:03.850Z,2.20
2019-05-12T17:49:32.731Z,2.20
2019-05-12T17:52:04.469Z,2.60
2019-05-12T17:54:34.022Z,3.40
2019-05-12T17:57:03.988Z,1.00
2019-05-12T17:59:33.327Z,1.30
2019-05-12T18:02:11.342Z,2.20
2019-05-12T18:04:36.670Z,1.70
2019-05-12T18:07:12.183Z,2.30
2019-05-12T18:09:33.883Z,2.70
2019-05-12T18:12:04.230Z,3.20
2019-05-12T18:14:44.996Z,5.40
2019-05-12T18:17:08.460Z,4.60
2019-05-12T18:19:34.434Z,4.50
2019-05-12T18:22:09.050Z,3.80
2019-05-12T18:24:34.394Z,3.10
2019-05-12T18:27:06.744Z,3.80
2019-05-12T18:29:34.275Z,6.00
2019-05-12T18:32:04.909Z,5.80
2019-05-12T18:34:34.049Z,4.60
2019-05-12T18:37:05.198Z,4.30
2019-05-12T18:39:34.391Z,4.90
2019-05-12T18:42:03.616Z,4.70
2019-05-12T18:44:32.727Z,4.10
2019-05-12T18:47:04.132Z,4.00
2019-05-12T18:49:33.700Z,5.20
2019-05-12T18:52:03.979Z,6.20
2019-05-12T18:54:34.579Z,5.00
2019-05-12T18:57:07.183Z,5.90
2019-05-12T18:59:34.022Z,4.80
2019-05-12T19:02:03.621Z,3.90
2019-05-12T19:04:33.931Z,3.00
2019-05-12T19:07:03.770Z,3.60
2019-05-12T19:09:33.515Z,5.10
2019-05-12T19:12:02.630Z,4.10
2019-05-12T19:14:37.089Z,4.30
2019-05-12T19:17:03.561Z,4.10
2019-05-12T19:19:32.832Z,4.10
2019-05-12T19:22:08.747Z,3.60
2019-05-12T19:24:36.051Z,3.90
2019-05-12T19:27:04.402Z,7.00
2019-05-12T19:29:39.030Z,6.50
2019-05-12T19:32:04.644Z,5.80
2019-05-12T19:34:37.531Z,6.70
2019-05-12T19:37:06.239Z,8.00
2019-05-12T19:39:35.202Z,7.40
2019-05-12T19:42:04.210Z,6.80
2019-05-12T19:44:34.257Z,7.90
2019-05-12T19:47:03.254Z,8.20
2019-05-12T19:49:45.954Z,7.40
2019-05-12T19:52:03.537Z,8.40
2019-05-12T19:54:36.364Z,5.80
2019-05-12T19:57:02.982Z,5.60
2019-05-12T19:59:34.015Z,5.40
2019-05-12T20:02:04.108Z,3.80
2019-05-12T20:04:36.559Z,4.50
2019-05-12T20:07:03.814Z,4.30
2019-05-12T20:09:32.850Z,4.40
2019-05-12T20:12:07.818Z,3.70
2019-05-12T20:14:34.377Z,2.70
2019-05-12T20:17:02.858Z,2.80
2019-05-12T20:19:33.894Z,3.80
2019-05-12T20:22:03.507Z,3.50
2019-05-12T20:24:32.684Z,4.10
2019-05-12T20:27:03.917Z,2.80
2019-05-12T20:29:33.903Z,3.30
2019-05-12T20:32:04.707Z,2.50
2019-05-12T20:34:45.904Z,3.40
2019-05-12T20:37:08.701Z,4.00
2019-05-12T20:39:34.552Z,3.20
2019-05-12T20:42:05.240Z,2.70
2019-05-12T20:44:34.476Z,2.20
2019-05-12T20:47:06.271Z,3.20
2019-05-12T20:49:34.592Z,1.00
2019-05-12T20:52:06.991Z,1.00
2019-05-12T20:54:34.177Z,1.00
2019-05-12T20:57:07.843Z,1.30
2019-05-12T20:59:33.826Z,1.00
2019-05-12T21:02:03.602Z,1.00
2019-05-12T21:04:37.420Z,1.00
2019-05-12T21:07:04.550Z,1.00
2019-05-12T21:09:34.886Z,1.00
2019-05-12T21:12:03.840Z,1.90
2019-05-12T21:14:33.479Z,1.30
2019-05-12T21:17:08.053Z,1.00
2019-05-12T21:19:35.660Z,1.00
2019-05-12T21:22:04.098Z,1.00
2019-05-12T21:24:36.184Z,1.00
2019-05-12T21:27:03.932Z,1.80
2019-05-12T21:29:33.350Z,2.30
2019-05-12T21:32:11.655Z,3.10
2019-05-12T21:34:34.524Z,4.00
2019-05-12T21:37:04.925Z,2.30
2019-05-12T21:39:34.487Z,2.80
2019-05-12T21:42:03.988Z,1.70
2019-05-12T21:44:32.903Z,1.90
2019-05-12T21:47:07.786Z,3.80
2019-05-12T21:49:33.235Z,1.60
2019-05-12T21:52:04.120Z,1.40
2019-05-12T21:54:35.919Z,1.00
2019-05-12T21:57:03.215Z,1.10
2019-05-12T21:59:35.280Z,1.50
2019-05-12T22:02:04.317Z,1.20
2019-05-12T22:04:41.255Z,1.50
2019-05-12T22:07:06.958Z,2.50
2019-05-12T22:09:41.539Z,1.00
2019-05-12T22:12:05.283Z,2.10
2019-05-12T22:14:38.664Z,2.70
2019-05-12T22:17:06.252Z,2.50
2019-05-12T22:19:38.163Z,1.50
2019-05-12T22:22:05.465Z,1.60
2019-05-12T22:24:38.783Z,1.70
2019-05-12T22:27:05.159Z,2.40
2019-05-12T22:29:34.317Z,1.90
2019-05-12T22:32:05.121Z,1.30
2019-05-12T22:34:37.192Z,1.70
2019-05-12T22:37:04.414Z,1.70
2019-05-12T22:39:34.187Z,1.80
2019-05-12T22:42:03.705Z,4.10
2019-05-12T22:44:34.695Z,3.60
2019-05-12T22:47:12.236Z,4.40
2019-05-12T22:49:34.047Z,4.60
2019-05-12T22:52:06.316Z,3.10
2019-05-12T22:54:33.667Z,3.70
2019-05-12T22:57:04.049Z,5.50
2019-05-12T22:59:40.444Z,6.00
2019-05-12T23:02:04.420Z,7.10
2019-05-12T23:04:39.633Z,7.10
2019-05-12T23:07:04.059Z,5.60
2019-05-12T23:09:33.933Z,4.50
2019-05-12T23:12:04.267Z,5.70
2019-05-12T23:14:34.033Z,6.10
2019-05-12T23:17:05.576Z,6.90
2019-05-12T23:19:34.118Z,7.70
2019-05-12T23:22:03.539Z,7.30
2019-05-12T23:24:38.805Z,6.70
2019-05-12T23:27:04.843Z,7.50
2019-05-12T23:29:34.326Z,5.70
2019-05-12T23:32:07.413Z,5.90
2019-05-12T23:34:33.977Z,8.60
2019-05-12T23:37:03.811Z,7.00
2019-05-12T23:39:38.239Z,8.40
2019-05-12T23:42:04.388Z,8.00
2019-05-12T23:44:33.503Z,10.00
2019-05-12T23:47:04.355Z,11.20
2019-05-12T23:49:33.654Z,10.70
2019-05-12T23:52:03.906Z,10.70
2019-05-12T23:54:34.446Z,9.80
2019-05-12T23:57:03.855Z,14.70
2019-05-12T23:59:33.388Z,12.10
